Time;durP1;ratioP1;P1;durP2;ratioP2;P2;SDS_P1;SDS_P2;PMS_P1;PMS_P2;Temp;Humidity;BMP_temperature;BMP_pressure;BME280_temperature;BME280_humidity;BME280_pressure;Samples;Min_cycle;Max_cycle;Signal;HPM_P1;HPM_P2
2022/05/05 00:00:08;;;;;;;16.48;8.77;;;14.00;53.90;;;;;;5136352;27;20098;-65
2022/05/05 00:02:35;;;;;;;16.45;8.65;;;14.10;54.00;;;;;;5137180;27;20033;-65
2022/05/05 00:05:02;;;;;;;17.80;7.97;;;14.10;54.00;;;;;;5117780;27;20341;-65
2022/05/05 00:07:27;;;;;;;14.60;7.30;;;14.10;54.10;;;;;;5116509;27;20027;-65
2022/05/05 00:09:53;;;;;;;11.38;6.63;;;14.10;54.10;;;;;;5126881;27;20028;-65
2022/05/05 00:15:05;;;;;;;13.90;6.82;;;14.10;54.20;;;;;;5133919;27;20027;-65
2022/05/05 00:17:33;;;;;;;13.77;7.40;;;14.10;54.20;;;;;;5135621;27;20019;-65
2022/05/05 00:20:00;;;;;;;17.42;8.77;;;14.10;54.40;;;;;;5133998;27;20034;-65
2022/05/05 00:22:26;;;;;;;17.30;8.45;;;14.10;54.40;;;;;;5133641;27;20471;-66
2022/05/05 00:24:52;;;;;;;18.75;8.48;;;14.00;54.50;;;;;;5122107;27;20329;-65
2022/05/05 00:27:18;;;;;;;15.68;8.23;;;14.00;54.50;;;;;;5119343;27;20027;-65
2022/05/05 00:29:43;;;;;;;15.90;7.75;;;14.00;54.60;;;;;;5129479;27;20436;-65
2022/05/05 00:32:09;;;;;;;14.65;7.50;;;14.00;54.60;;;;;;5125607;27;20042;-65
2022/05/05 00:34:34;;;;;;;15.40;6.97;;;14.00;54.70;;;;;;5126200;27;20095;-65
2022/05/05 00:37:00;;;;;;;14.75;6.43;;;13.90;54.70;;;;;;5125658;27;20071;-65
2022/05/05 00:39:25;;;;;;;13.57;6.25;;;13.90;54.80;;;;;;5119682;27;20034;-65
2022/05/05 00:41:52;;;;;;;12.82;6.13;;;13.90;54.90;;;;;;5123179;27;20019;-65
2022/05/05 00:44:18;;;;;;;12.13;5.93;;;13.90;54.90;;;;;;5122305;27;20027;-65
2022/05/05 00:46:51;;;;;;;12.68;5.80;;;13.90;55.00;;;;;;5126253;27;20043;-65
2022/05/05 00:49:17;;;;;;;11.38;6.15;;;13.90;55.10;;;;;;5120294;27;20054;-65
2022/05/05 00:51:43;;;;;;;10.80;6.10;;;13.90;55.10;;;;;;5115352;27;20028;-65
2022/05/05 00:54:09;;;;;;;12.82;6.70;;;13.80;55.10;;;;;;5119402;27;20034;-65
2022/05/05 00:56:36;;;;;;;14.95;6.97;;;13.80;55.20;;;;;;5131493;27;20460;-65
2022/05/05 00:59:02;;;;;;;13.07;7.05;;;13.80;55.40;;;;;;5121914;27;20088;-65
2022/05/05 01:01:28;;;;;;;12.25;6.80;;;13.80;55.50;;;;;;5131865;27;20031;-65
2022/05/05 01:03:54;;;;;;;10.88;5.90;;;13.80;55.50;;;;;;5132529;27;20038;-65
2022/05/05 01:06:20;;;;;;;10.32;5.45;;;13.70;55.60;;;;;;5114728;27;20020;-65
2022/05/05 01:08:46;;;;;;;12.13;5.90;;;13.70;55.70;;;;;;5126559;27;20028;-65
2022/05/05 01:11:12;;;;;;;12.75;5.93;;;13.70;55.90;;;;;;5133723;27;20031;-65
2022/05/05 01:13:40;;;;;;;10.73;5.85;;;13.70;56.00;;;;;;5119756;27;20035;-65
2022/05/05 01:16:06;;;;;;;11.45;6.07;;;13.60;56.10;;;;;;5117851;27;20036;-65
2022/05/05 01:18:32;;;;;;;11.25;5.50;;;13.60;56.30;;;;;;5113911;27;20023;-65
2022/05/05 01:20:58;;;;;;;11.50;5.65;;;13.60;56.30;;;;;;5130243;27;20030;-65
2022/05/05 01:23:23;;;;;;;11.50;5.70;;;13.60;56.40;;;;;;5126127;27;20034;-65
2022/05/05 01:28:42;;;;;;;11.43;5.57;;;13.50;56.60;;;;;;5114741;28;20088;-65
2022/05/05 01:31:08;;;;;;;12.18;5.55;;;13.50;56.80;;;;;;5129587;27;20198;-65
2022/05/05 01:33:33;;;;;;;10.77;5.60;;;13.40;56.80;;;;;;5103586;28;20416;-65
2022/05/05 01:36:00;;;;;;;11.77;5.60;;;13.40;56.90;;;;;;5127092;27;20076;-66
2022/05/05 01:38:37;;;;;;;10.35;5.30;;;13.40;57.10;;;;;;5132986;28;20032;-65
2022/05/05 01:41:07;;;;;;;12.40;5.68;;;13.30;57.20;;;;;;5132848;27;20355;-65
2022/05/05 01:43:33;;;;;;;11.50;5.72;;;13.30;57.40;;;;;;5120946;27;20032;-65
2022/05/05 01:45:59;;;;;;;10.70;5.47;;;13.30;57.40;;;;;;5126415;28;20035;-65
2022/05/05 01:48:25;;;;;;;14.13;5.85;;;13.30;57.50;;;;;;5126213;28;20080;-66
2022/05/05 01:50:50;;;;;;;9.88;5.57;;;13.30;57.60;;;;;;5124724;28;20034;-65
2022/05/05 01:53:16;;;;;;;13.48;5.55;;;13.20;57.70;;;;;;5122848;28;20110;-65
2022/05/05 01:55:42;;;;;;;8.48;5.05;;;13.20;57.80;;;;;;5086025;28;20047;-65
2022/05/05 01:58:07;;;;;;;10.52;5.25;;;13.20;57.90;;;;;;5127962;27;20027;-65
2022/05/05 02:00:33;;;;;;;10.02;5.45;;;13.20;58.10;;;;;;5119207;27;20055;-65
2022/05/05 02:02:59;;;;;;;12.38;5.40;;;13.20;58.20;;;;;;5118615;28;20024;-65
2022/05/05 02:05:25;;;;;;;11.23;5.80;;;13.20;58.90;;;;;;5120429;27;20034;-65
2022/05/05 02:07:50;;;;;;;11.80;5.28;;;13.10;58.30;;;;;;5118878;27;20089;-65
2022/05/05 02:10:17;;;;;;;12.18;5.18;;;13.10;58.40;;;;;;5122153;27;20028;-65
2022/05/05 02:12:44;;;;;;;10.68;5.57;;;13.10;58.50;;;;;;5136927;27;20043;-65
2022/05/05 02:15:11;;;;;;;10.70;5.70;;;13.10;58.60;;;;;;5137232;27;20536;-65
2022/05/05 02:17:39;;;;;;;9.75;5.45;;;13.10;58.70;;;;;;5117780;27;20389;-65
2022/05/05 02:20:07;;;;;;;11.10;5.68;;;13.10;58.80;;;;;;5105021;28;20035;-65
2022/05/05 02:22:33;;;;;;;11.93;6.03;;;13.00;58.80;;;;;;5121054;27;20035;-65
2022/05/05 02:24:59;;;;;;;12.63;5.50;;;13.00;58.90;;;;;;5129153;27;20015;-65
2022/05/05 02:27:25;;;;;;;10.10;5.30;;;13.00;59.00;;;;;;5118390;27;20073;-65
2022/05/05 02:29:51;;;;;;;11.07;5.82;;;13.00;59.10;;;;;;5118855;27;20332;-65
2022/05/05 02:32:17;;;;;;;10.90;5.57;;;13.00;59.20;;;;;;5134373;27;20047;-65
2022/05/05 02:34:44;;;;;;;11.43;5.80;;;12.90;59.20;;;;;;5121788;27;20032;-65
2022/05/05 02:39:54;;;;;;;10.32;5.40;;;12.90;59.50;;;;;;5133784;27;20039;-65
2022/05/05 02:42:20;;;;;;;10.35;5.40;;;12.80;59.50;;;;;;5120607;27;20027;-65
2022/05/05 02:44:46;;;;;;;11.77;5.88;;;12.80;59.60;;;;;;5116723;27;20333;-65
2022/05/05 02:47:12;;;;;;;9.90;5.63;;;12.80;59.80;;;;;;5117716;27;20028;-65
2022/05/05 02:49:38;;;;;;;12.43;6.07;;;12.80;59.90;;;;;;5130070;27;20031;-65
2022/05/05 02:52:07;;;;;;;10.35;5.65;;;12.70;60.00;;;;;;5125107;27;20474;-65
2022/05/05 02:54:51;;;;;;;10.63;5.35;;;12.70;60.10;;;;;;5118717;27;20035;-65
2022/05/05 02:57:23;;;;;;;10.63;5.38;;;12.70;60.20;;;;;;5130621;27;20035;-65
2022/05/05 02:59:53;;;;;;;10.32;6.05;;;12.60;60.30;;;;;;5121063;27;20028;-65
2022/05/05 03:02:20;;;;;;;11.65;5.60;;;12.60;60.30;;;;;;5121497;27;20111;-65
2022/05/05 03:04:45;;;;;;;11.02;5.72;;;12.60;60.50;;;;;;5117233;27;20476;-65
2022/05/05 03:07:11;;;;;;;11.48;6.00;;;12.60;60.60;;;;;;5118312;27;20080;-65
2022/05/05 03:09:39;;;;;;;9.85;5.25;;;12.50;60.60;;;;;;5116356;27;20440;-65
2022/05/05 03:12:05;;;;;;;12.23;5.43;;;12.60;60.70;;;;;;5127879;27;20038;-65
2022/05/05 03:14:31;;;;;;;9.57;5.38;;;12.50;60.70;;;;;;5125883;27;20089;-65
2022/05/05 03:16:57;;;;;;;10.15;6.00;;;12.50;60.90;;;;;;5122125;27;20035;-65
2022/05/05 03:19:22;;;;;;;11.20;5.80;;;12.50;60.90;;;;;;5118852;27;20023;-65
2022/05/05 03:21:48;;;;;;;11.07;5.50;;;12.40;61.00;;;;;;5126638;27;20110;-65
2022/05/05 03:24:13;;;;;;;13.70;5.72;;;12.40;61.10;;;;;;5118127;27;20030;-65
2022/05/05 03:26:39;;;;;;;10.10;6.35;;;12.40;61.20;;;;;;5120415;27;20031;-65
2022/05/05 03:29:05;;;;;;;11.48;5.60;;;12.40;61.30;;;;;;5115863;27;20170;-64
2022/05/05 03:31:32;;;;;;;11.55;6.00;;;12.40;61.40;;;;;;5124630;27;20464;-65
2022/05/05 03:33:58;;;;;;;11.70;5.47;;;12.40;61.50;;;;;;5118327;27;20294;-65
2022/05/05 03:36:23;;;;;;;10.80;5.30;;;12.40;61.50;;;;;;5122170;27;20034;-65
2022/05/05 03:38:50;;;;;;;10.07;5.75;;;12.40;61.60;;;;;;5123568;27;20435;-65
2022/05/05 03:41:15;;;;;;;12.18;5.95;;;12.30;61.60;;;;;;5124982;27;20031;-65
2022/05/05 03:43:41;;;;;;;13.50;5.82;;;12.30;61.60;;;;;;5124022;27;20026;-65
2022/05/05 03:46:06;;;;;;;10.45;5.57;;;12.30;61.70;;;;;;5126636;27;20063;-64
2022/05/05 03:48:32;;;;;;;11.35;5.70;;;12.30;61.80;;;;;;5123446;27;20030;-65
2022/05/05 03:50:58;;;;;;;11.15;5.90;;;12.30;61.80;;;;;;5124973;27;20032;-65
2022/05/05 03:53:23;;;;;;;11.90;5.72;;;12.20;61.80;;;;;;5123372;27;20085;-65
2022/05/05 03:55:49;;;;;;;9.93;5.28;;;12.20;61.90;;;;;;5123845;27;20325;-65
2022/05/05 03:58:14;;;;;;;11.88;5.72;;;12.20;62.00;;;;;;5129053;27;20109;-65
2022/05/05 04:00:40;;;;;;;9.43;5.07;;;12.20;62.10;;;;;;5124330;27;20027;-65
2022/05/05 04:05:50;;;;;;;13.15;6.10;;;12.10;62.10;;;;;;5121471;27;20034;-65
2022/05/05 04:08:16;;;;;;;11.18;5.93;;;12.10;62.20;;;;;;5129399;27;20444;-64
2022/05/05 04:10:41;;;;;;;9.52;5.38;;;12.10;62.30;;;;;;5124270;27;20035;-65
2022/05/05 04:13:07;;;;;;;11.70;5.03;;;12.10;62.30;;;;;;5125575;27;20054;-64
2022/05/05 04:15:33;;;;;;;12.77;6.07;;;12.10;62.40;;;;;;5130730;27;20035;-65
2022/05/05 04:18:00;;;;;;;9.65;5.43;;;12.10;62.40;;;;;;5116423;27;20452;-64
2022/05/05 04:20:25;;;;;;;10.57;5.63;;;12.10;62.50;;;;;;5123106;27;20379;-66
2022/05/05 04:22:51;;;;;;;11.93;6.22;;;12.00;62.60;;;;;;5127168;27;20023;-65
2022/05/05 04:25:17;;;;;;;9.80;5.45;;;12.00;62.60;;;;;;5116419;27;20509;-65
2022/05/05 04:27:45;;;;;;;10.30;5.30;;;12.10;62.60;;;;;;5121567;27;20042;-65
2022/05/05 04:30:13;;;;;;;9.90;5.63;;;12.00;62.50;;;;;;5119183;27;20030;-65
2022/05/05 04:32:39;;;;;;;10.23;6.03;;;12.10;62.60;;;;;;5126923;27;20075;-65
2022/05/05 04:35:05;;;;;;;11.55;5.18;;;12.10;62.60;;;;;;5126347;27;20062;-65
2022/05/05 04:37:31;;;;;;;11.75;5.40;;;12.10;62.60;;;;;;5130083;27;20026;-65
2022/05/05 04:39:56;;;;;;;11.50;6.55;;;12.10;62.70;;;;;;5099569;27;20015;-66
2022/05/05 04:42:22;;;;;;;12.02;5.53;;;12.00;62.60;;;;;;5123754;27;20037;-65
2022/05/05 04:44:47;;;;;;;12.98;5.78;;;12.10;63.10;;;;;;5124070;27;20051;-64
2022/05/05 04:47:13;;;;;;;10.57;5.53;;;12.10;62.70;;;;;;5121092;27;20023;-65
2022/05/05 04:49:38;;;;;;;11.95;5.32;;;12.10;62.70;;;;;;5115788;27;20023;-65
2022/05/05 04:52:04;;;;;;;12.95;6.38;;;12.10;62.60;;;;;;5129182;27;20030;-65
2022/05/05 04:54:30;;;;;;;10.65;5.53;;;12.10;62.60;;;;;;5129665;27;20098;-65
2022/05/05 04:56:55;;;;;;;9.95;5.28;;;12.10;62.60;;;;;;5124260;27;20041;-65
2022/05/05 04:59:21;;;;;;;11.77;5.32;;;12.10;62.60;;;;;;5130245;27;20092;-65
2022/05/05 05:01:47;;;;;;;12.90;6.00;;;12.10;62.60;;;;;;5115865;28;20039;-65
2022/05/05 05:04:13;;;;;;;12.02;6.15;;;12.10;62.60;;;;;;5120400;27;20030;-65
2022/05/05 05:06:38;;;;;;;11.68;6.82;;;12.20;62.60;;;;;;5118091;27;20039;-64
2022/05/05 05:09:05;;;;;;;11.93;6.57;;;12.20;62.60;;;;;;5130893;27;20084;-65
2022/05/05 05:11:31;;;;;;;13.10;5.93;;;12.20;62.60;;;;;;5129802;27;20015;-65
2022/05/05 05:13:56;;;;;;;9.35;5.47;;;12.30;62.60;;;;;;5121332;27;20409;-65
2022/05/05 05:16:22;;;;;;;12.57;6.03;;;12.30;62.50;;;;;;5133109;27;20027;-65
2022/05/05 05:18:50;;;;;;;13.85;7.25;;;12.30;62.50;;;;;;5118014;27;20019;-65
2022/05/05 05:21:15;;;;;;;11.60;6.60;;;12.30;62.40;;;;;;5122559;27;20028;-65
2022/05/05 05:23:41;;;;;;;12.10;6.80;;;12.40;62.40;;;;;;5115177;28;20035;-65
2022/05/05 05:26:07;;;;;;;12.30;7.43;;;12.40;62.40;;;;;;5125196;27;20116;-65
2022/05/05 05:28:32;;;;;;;10.63;6.05;;;12.50;62.30;;;;;;5130698;27;20468;-65
2022/05/05 05:30:58;;;;;;;12.65;6.60;;;12.50;62.20;;;;;;5094040;28;20134;-65
2022/05/05 05:33:23;;;;;;;12.63;6.45;;;12.60;62.20;;;;;;5133954;27;20031;-65
2022/05/05 05:35:49;;;;;;;11.32;6.75;;;12.70;62.10;;;;;;5111826;28;20034;-64
2022/05/05 05:38:19;;;;;;;14.27;7.10;;;12.80;61.90;;;;;;5126492;27;20019;-65
2022/05/05 05:40:44;;;;;;;12.50;6.60;;;12.90;61.80;;;;;;5108059;28;20137;-66
2022/05/05 05:43:10;;;;;;;11.75;6.25;;;13.00;61.60;;;;;;5108303;28;20070;-65
2022/05/05 05:45:36;;;;;;;11.10;6.53;;;13.10;61.40;;;;;;5119056;27;20091;-65
2022/05/05 05:48:01;;;;;;;10.90;6.30;;;13.30;61.40;;;;;;5125617;27;20032;-66
2022/05/05 05:50:28;;;;;;;15.27;7.57;;;13.30;61.30;;;;;;5115020;27;20036;-66
2022/05/05 05:52:54;;;;;;;11.40;7.13;;;13.40;61.10;;;;;;5121927;28;20074;-66
2022/05/05 05:55:20;;;;;;;10.90;6.93;;;13.50;60.80;;;;;;5132314;28;20084;-65
2022/05/05 05:57:46;;;;;;;16.13;7.85;;;13.60;60.50;;;;;;5132587;27;20023;-66
2022/05/05 06:00:12;;;;;;;12.93;7.43;;;13.70;60.30;;;;;;5113752;28;20441;-66
2022/05/05 06:05:22;;;;;;;13.35;7.63;;;13.80;60.00;;;;;;5117604;28;20050;-65
2022/05/05 06:07:48;;;;;;;16.02;7.88;;;13.90;59.90;;;;;;5113727;28;20103;-66
2022/05/05 06:10:16;;;;;;;12.98;8.05;;;14.00;59.70;;;;;;5122728;28;20082;-66
2022/05/05 06:12:42;;;;;;;15.50;7.28;;;14.20;59.40;;;;;;5134989;28;20038;-65
2022/05/05 06:15:08;;;;;;;16.25;7.20;;;14.40;58.90;;;;;;5127628;27;20027;-66
2022/05/05 06:17:34;;;;;;;11.57;7.05;;;14.60;58.50;;;;;;5120276;27;20026;-65
2022/05/05 06:20:00;;;;;;;13.13;7.45;;;14.80;58.20;;;;;;5127915;28;20026;-65
2022/05/05 06:22:26;;;;;;;14.23;7.47;;;15.00;57.90;;;;;;5114731;28;20402;-65
2022/05/05 06:24:51;;;;;;;15.23;7.82;;;15.20;57.50;;;;;;5130688;28;20448;-65
2022/05/05 06:27:17;;;;;;;11.80;6.82;;;15.40;57.10;;;;;;5120497;27;20027;-65
2022/05/05 06:29:42;;;;;;;13.52;7.13;;;15.60;56.70;;;;;;5117420;28;20352;-66
2022/05/05 06:32:08;;;;;;;13.18;6.75;;;15.80;56.50;;;;;;5118476;28;20058;-66
2022/05/05 06:34:34;;;;;;;12.70;6.82;;;15.90;56.00;;;;;;5115713;28;20035;-65
2022/05/05 06:37:00;;;;;;;13.80;6.93;;;16.00;55.70;;;;;;5117086;27;20035;-66
2022/05/05 06:39:25;;;;;;;13.88;7.13;;;16.20;55.60;;;;;;5118891;28;20196;-66
2022/05/05 06:41:51;;;;;;;14.25;7.90;;;16.30;55.40;;;;;;5102293;28;20084;-66
2022/05/05 06:44:17;;;;;;;13.88;7.82;;;16.40;55.10;;;;;;5121357;27;20083;-67
2022/05/05 06:46:44;;;;;;;14.80;8.30;;;16.50;54.70;;;;;;5120162;27;20062;-66
2022/05/05 06:49:10;;;;;;;12.55;7.55;;;16.50;54.60;;;;;;5118694;27;20355;-66
2022/05/05 06:51:37;;;;;;;13.45;7.55;;;16.60;54.60;;;;;;5134538;27;20058;-67
2022/05/05 06:54:02;;;;;;;13.82;7.53;;;16.70;54.50;;;;;;5130040;27;20436;-66
2022/05/05 06:56:29;;;;;;;13.93;7.60;;;16.90;54.10;;;;;;5132436;27;20091;-65
2022/05/05 06:58:54;;;;;;;12.77;7.50;;;17.00;53.70;;;;;;5131042;27;20031;-66
2022/05/05 07:06:49;;;;;;;14.10;7.47;;;17.60;52.80;;;;;;5131105;27;20455;-64
2022/05/05 07:11:59;;;;;;;12.35;7.10;;;17.80;51.90;;;;;;5116556;28;20031;-64
2022/05/05 07:14:25;;;;;;;14.80;7.70;;;18.00;52.30;;;;;;5116777;27;20027;-65
2022/05/05 07:16:50;;;;;;;14.32;7.72;;;18.10;51.50;;;;;;5116881;28;20034;-64
2022/05/05 07:19:16;;;;;;;13.95;8.05;;;18.20;51.90;;;;;;5120767;27;20437;-64
2022/05/05 07:21:41;;;;;;;12.98;8.10;;;18.40;51.00;;;;;;5117771;27;20027;-65
2022/05/05 07:24:07;;;;;;;12.77;7.25;;;18.50;50.70;;;;;;5123759;27;20098;-65
2022/05/05 07:26:33;;;;;;;15.07;8.23;;;18.70;50.40;;;;;;5134521;27;20448;-65
2022/05/05 07:28:58;;;;;;;17.40;8.30;;;18.90;50.10;;;;;;5128518;27;20035;-65
2022/05/05 07:31:24;;;;;;;14.00;7.82;;;19.10;49.80;;;;;;5137784;27;20141;-65
2022/05/05 07:33:49;;;;;;;14.63;7.78;;;19.30;49.50;;;;;;5138155;27;20491;-65
2022/05/05 07:36:15;;;;;;;13.23;7.38;;;19.50;49.20;;;;;;5122622;27;20036;-65
2022/05/05 07:38:41;;;;;;;16.92;7.95;;;19.60;48.70;;;;;;5117425;28;20058;-65
2022/05/05 07:41:06;;;;;;;16.35;8.02;;;19.70;48.40;;;;;;5117328;28;20063;-65
2022/05/05 07:43:32;;;;;;;16.35;8.07;;;19.90;48.10;;;;;;5117179;28;20329;-65
2022/05/05 07:45:58;;;;;;;13.27;8.10;;;20.10;47.60;;;;;;5117060;28;20026;-65
2022/05/05 07:48:24;;;;;;;15.45;7.10;;;20.20;47.20;;;;;;5116902;28;20032;-65
2022/05/05 07:50:49;;;;;;;13.75;7.47;;;20.40;46.70;;;;;;5127629;27;20459;-65
2022/05/05 07:53:15;;;;;;;14.35;7.35;;;20.40;46.20;;;;;;5136498;27;20466;-65
2022/05/05 07:55:41;;;;;;;15.27;7.68;;;20.30;46.10;;;;;;5137608;27;20027;-65
2022/05/05 07:58:07;;;;;;;12.35;7.50;;;20.10;46.00;;;;;;5137870;27;20039;-65
2022/05/05 08:00:32;;;;;;;14.30;8.30;;;20.00;46.10;;;;;;5136370;27;20134;-65
2022/05/05 08:02:58;;;;;;;16.88;7.78;;;19.80;46.10;;;;;;5137957;27;20091;-64
2022/05/05 08:05:24;;;;;;;13.90;8.20;;;19.70;46.10;;;;;;5138404;27;20102;-65
2022/05/05 08:07:51;;;;;;;13.75;7.78;;;19.60;46.30;;;;;;5114905;28;20036;-64
2022/05/05 08:10:21;;;;;;;15.43;8.02;;;19.50;46.40;;;;;;5116909;28;20051;-65
2022/05/05 08:12:47;;;;;;;14.35;7.20;;;19.50;46.50;;;;;;5124920;27;20042;-65
2022/05/05 08:15:16;;;;;;;16.80;7.20;;;19.50;46.50;;;;;;5136251;27;20440;-65
2022/05/05 08:17:43;;;;;;;14.13;7.72;;;19.50;46.50;;;;;;5135062;27;20061;-65
2022/05/05 08:20:09;;;;;;;14.93;7.32;;;19.50;46.40;;;;;;5134879;27;20149;-65
2022/05/05 08:22:35;;;;;;;14.10;7.10;;;19.50;46.30;;;;;;5131282;27;20046;-65
2022/05/05 08:30:29;;;;;;;13.40;7.68;;;19.50;46.00;;;;;;5136598;27;20023;-64
2022/05/05 08:32:55;;;;;;;16.30;8.15;;;19.50;46.00;;;;;;5116057;27;20023;-65
2022/05/05 08:35:22;;;;;;;12.68;7.18;;;19.60;46.10;;;;;;5119087;27;20027;-66
2022/05/05 08:37:50;;;;;;;16.05;8.25;;;19.70;46.10;;;;;;5126860;27;20050;-66
2022/05/05 08:40:17;;;;;;;14.85;8.15;;;19.80;46.00;;;;;;5125753;27;20027;-66
2022/05/05 08:42:42;;;;;;;17.02;8.32;;;19.90;45.70;;;;;;5117587;27;20081;-66
2022/05/05 08:45:09;;;;;;;13.90;7.63;;;19.90;45.60;;;;;;5120046;27;20028;-65
2022/05/05 08:47:36;;;;;;;12.95;7.88;;;20.00;45.60;;;;;;5122864;27;20027;-65
2022/05/05 08:50:02;;;;;;;16.38;7.78;;;19.90;45.50;;;;;;5119694;27;20393;-65
2022/05/05 08:52:37;;;;;;;17.63;9.02;;;19.90;45.60;;;;;;5134669;27;20107;-66
2022/05/05 08:55:04;;;;;;;14.55;7.68;;;19.90;45.50;;;;;;5127460;27;20034;-66
2022/05/05 08:57:30;;;;;;;15.82;8.57;;;19.90;45.50;;;;;;5135758;27;20031;-66
2022/05/05 08:59:56;;;;;;;14.18;8.27;;;19.80;45.40;;;;;;5133139;27;20035;-66
2022/05/05 09:02:21;;;;;;;13.68;8.30;;;19.80;45.50;;;;;;5135834;27;20027;-65
2022/05/05 09:04:47;;;;;;;14.85;7.97;;;19.80;45.70;;;;;;5119486;27;20077;-65
2022/05/05 09:07:13;;;;;;;11.75;7.25;;;19.70;45.70;;;;;;5117564;27;20118;-65
2022/05/05 09:09:39;;;;;;;14.55;7.75;;;19.80;45.80;;;;;;5123983;27;20107;-65
2022/05/05 09:12:17;;;;;;;12.40;7.57;;;19.80;45.90;;;;;;5134931;27;20031;-65
2022/05/05 09:14:53;;;;;;;14.88;8.38;;;19.80;45.80;;;;;;5125806;27;20028;-65
2022/05/05 09:17:20;;;;;;;12.63;6.90;;;19.70;45.60;;;;;;5115379;28;20039;-66
2022/05/05 09:19:50;;;;;;;12.15;6.43;;;19.70;45.70;;;;;;5128983;27;20038;-65
2022/05/05 09:22:18;;;;;;;12.13;6.87;;;19.70;45.90;;;;;;5113991;28;20036;-65
2022/05/05 09:24:51;;;;;;;14.65;7.28;;;19.70;45.70;;;;;;5127193;27;20133;-65
2022/05/05 09:27:32;;;;;;;13.32;7.53;;;19.80;45.80;;;;;;5135952;27;20062;-65
2022/05/05 09:30:12;;;;;;;12.57;7.30;;;19.80;45.60;;;;;;5117109;27;20035;-65
2022/05/05 09:32:40;;;;;;;13.83;7.23;;;19.70;45.80;;;;;;5129563;27;20096;-65
2022/05/05 09:35:10;;;;;;;14.02;8.40;;;19.70;45.90;;;;;;5118061;27;20621;-66
2022/05/05 09:37:37;;;;;;;11.57;7.13;;;19.80;45.90;;;;;;5135351;27;20042;-66
2022/05/05 09:40:06;;;;;;;12.30;7.40;;;19.80;45.90;;;;;;5108234;28;20039;-66
2022/05/05 09:42:37;;;;;;;13.48;7.53;;;19.90;46.00;;;;;;5125122;27;20381;-66
2022/05/05 09:48:15;;;;;;;13.55;8.13;;;19.90;45.90;;;;;;5106469;27;20455;-67
2022/05/05 09:50:56;;;;;;;15.35;7.97;;;20.00;46.00;;;;;;5132494;28;20035;-65
2022/05/05 09:59:02;;;;;;;15.45;8.43;;;20.10;45.80;;;;;;5114428;28;20442;-66
2022/05/05 10:01:31;;;;;;;14.77;8.63;;;20.10;45.80;;;;;;5113633;28;20028;-66
2022/05/05 10:04:01;;;;;;;14.82;7.75;;;20.10;45.90;;;;;;5115764;28;20332;-65
2022/05/05 10:06:31;;;;;;;14.30;8.40;;;20.10;45.90;;;;;;5125242;28;20380;-65
2022/05/05 10:09:04;;;;;;;14.95;8.40;;;20.20;46.00;;;;;;5130436;27;20032;-66
2022/05/05 10:11:30;;;;;;;14.05;8.40;;;20.10;45.90;;;;;;5103021;28;20030;-65
2022/05/05 10:13:58;;;;;;;14.07;8.38;;;20.20;46.00;;;;;;5120448;28;20035;-66
2022/05/05 10:16:24;;;;;;;13.88;8.38;;;20.20;46.00;;;;;;5127332;27;20064;-66
2022/05/05 10:18:51;;;;;;;17.38;8.40;;;20.30;46.10;;;;;;5110507;28;20461;-66
2022/05/05 10:21:26;;;;;;;13.25;7.20;;;20.30;46.00;;;;;;5118356;27;20034;-66
2022/05/05 10:23:52;;;;;;;12.35;7.55;;;20.40;46.00;;;;;;5117515;27;20020;-66
2022/05/05 10:26:25;;;;;;;14.38;7.30;;;20.50;46.00;;;;;;5132334;27;20030;-65
2022/05/05 10:28:52;;;;;;;13.07;7.72;;;20.60;45.80;;;;;;5128780;27;20038;-65
2022/05/05 10:31:30;;;;;;;13.75;8.10;;;20.70;45.70;;;;;;5120389;27;20108;-65
2022/05/05 10:34:06;;;;;;;16.30;8.63;;;20.80;45.60;;;;;;5139037;27;20030;-65
2022/05/05 10:36:36;;;;;;;14.68;7.78;;;20.80;45.50;;;;;;5122366;27;20063;-65
2022/05/05 10:39:21;;;;;;;14.65;8.85;;;20.80;46.10;;;;;;5140127;27;20031;-65
2022/05/05 10:41:48;;;;;;;16.20;7.85;;;20.80;45.30;;;;;;5137873;27;20033;-65
2022/05/05 10:44:19;;;;;;;15.85;9.07;;;20.80;46.10;;;;;;5124059;27;20457;-65
2022/05/05 10:47:05;;;;;;;16.48;8.80;;;20.80;45.60;;;;;;5134166;27;20035;-65
2022/05/05 10:52:11;;;;;;;13.68;7.43;;;21.10;45.40;;;;;;5123630;27;20471;-65
2022/05/05 10:54:45;;;;;;;13.80;7.90;;;21.20;44.80;;;;;;5117691;28;20436;-65
2022/05/05 10:57:26;;;;;;;13.98;7.75;;;21.30;44.80;;;;;;5117795;27;20035;-65
2022/05/05 11:00:14;;;;;;;13.00;7.13;;;21.50;45.10;;;;;;5118848;27;20024;-65
2022/05/05 11:02:58;;;;;;;13.32;8.45;;;21.70;44.40;;;;;;5116877;27;20035;-65
2022/05/05 11:05:35;;;;;;;14.60;7.72;;;21.80;44.40;;;;;;5143877;27;20118;-66
2022/05/05 11:08:10;;;;;;;15.68;8.80;;;21.90;44.20;;;;;;5129491;27;20028;-66
2022/05/05 11:13:39;;;;;;;14.65;9.02;;;21.70;44.20;;;;;;5128189;27;20050;-65
2022/05/05 11:22:15;;;;;;;13.00;7.53;;;21.60;44.40;;;;;;5125949;27;20031;-66
2022/05/05 11:24:49;;;;;;;12.30;7.95;;;21.70;44.40;;;;;;5119055;27;20090;-67
2022/05/05 11:27:21;;;;;;;14.98;8.55;;;21.70;44.40;;;;;;5128241;27;20051;-67
2022/05/05 11:29:54;;;;;;;13.73;7.72;;;21.70;44.20;;;;;;5116702;28;20096;-65
2022/05/05 11:32:21;;;;;;;12.88;9.18;;;21.80;44.40;;;;;;5116454;28;20052;-66
2022/05/05 11:34:48;;;;;;;15.90;9.02;;;21.90;44.40;;;;;;5117565;27;20031;-66
2022/05/05 11:37:14;;;;;;;14.98;8.98;;;21.80;44.40;;;;;;5117918;28;20027;-66
2022/05/05 11:39:40;;;;;;;14.15;8.77;;;21.70;44.50;;;;;;5117597;28;20035;-66
2022/05/05 11:42:08;;;;;;;14.45;8.73;;;21.70;44.50;;;;;;5117103;27;20356;-66
2022/05/05 11:44:46;;;;;;;13.80;7.22;;;21.80;44.50;;;;;;5115930;28;20520;-65
2022/05/05 11:47:13;;;;;;;16.25;9.63;;;21.90;44.60;;;;;;5117445;28;20088;-65
2022/05/05 11:49:43;;;;;;;13.30;8.45;;;21.90;44.30;;;;;;5126904;27;20126;-64
2022/05/05 11:52:10;;;;;;;14.00;8.90;;;21.90;44.50;;;;;;5137593;27;20042;-64
2022/05/05 11:54:36;;;;;;;12.55;7.40;;;21.90;44.50;;;;;;5137838;27;20113;-65
2022/05/05 11:57:02;;;;;;;11.10;6.97;;;21.90;44.40;;;;;;5137883;27;20118;-64
2022/05/05 12:02:21;;;;;;;16.42;8.65;;;21.90;44.30;;;;;;5137595;27;20028;-64
2022/05/05 12:04:51;;;;;;;13.20;8.18;;;21.90;44.00;;;;;;5124285;27;20073;-66
2022/05/05 12:07:22;;;;;;;13.30;7.50;;;21.80;44.10;;;;;;5117090;28;20023;-64
2022/05/05 12:09:50;;;;;;;9.70;5.75;;;21.80;44.00;;;;;;5116037;28;20413;-64
2022/05/05 12:12:20;;;;;;;13.10;5.90;;;21.80;43.80;;;;;;5116470;28;20038;-64
2022/05/05 12:14:52;;;;;;;12.05;6.78;;;21.80;43.60;;;;;;5116584;28;20054;-64
2022/05/05 12:17:22;;;;;;;12.05;7.03;;;21.80;43.60;;;;;;5116586;28;20485;-64
2022/05/05 12:19:53;;;;;;;11.30;6.70;;;21.80;43.80;;;;;;5117139;28;20019;-64
2022/05/05 12:22:37;;;;;;;10.68;6.03;;;21.90;43.50;;;;;;5130654;27;20360;-63
2022/05/05 12:25:16;;;;;;;10.93;5.65;;;21.90;43.30;;;;;;5135890;27;20080;-64
2022/05/05 12:27:44;;;;;;;10.38;5.35;;;21.80;42.80;;;;;;5136800;27;20095;-64
2022/05/05 12:30:12;;;;;;;9.85;4.68;;;21.90;42.70;;;;;;5137057;27;20027;-64
2022/05/05 12:32:50;;;;;;;11.82;5.22;;;21.90;42.50;;;;;;5136962;27;20126;-64
2022/05/05 12:35:17;;;;;;;10.95;4.95;;;21.90;42.40;;;;;;5121513;27;20046;-66
2022/05/05 12:37:43;;;;;;;8.70;4.82;;;21.90;42.40;;;;;;5116229;28;20019;-65
2022/05/05 12:40:09;;;;;;;10.73;6.20;;;21.90;42.40;;;;;;5115054;27;20032;-64
2022/05/05 12:42:48;;;;;;;9.38;5.40;;;21.90;42.30;;;;;;5114353;28;20047;-64
2022/05/05 12:45:15;;;;;;;11.07;6.25;;;21.90;42.50;;;;;;5115288;28;20379;-65
2022/05/05 12:47:46;;;;;;;11.98;6.80;;;21.90;42.50;;;;;;5115713;28;20028;-65
2022/05/05 12:50:37;;;;;;;16.65;6.95;;;21.90;42.50;;;;;;5128850;27;20027;-65
2022/05/05 13:01:28;;;;;;;11.38;6.75;;;21.80;42.90;;;;;;5136132;27;20038;-67
2022/05/05 13:03:54;;;;;;;13.75;7.32;;;21.80;42.70;;;;;;5133008;27;20036;-65
2022/05/05 13:06:21;;;;;;;12.77;7.95;;;21.80;42.90;;;;;;5115430;27;20030;-65
2022/05/05 13:08:47;;;;;;;11.48;6.88;;;21.80;43.00;;;;;;5115840;28;20066;-64
2022/05/05 13:11:15;;;;;;;13.25;6.95;;;21.70;43.00;;;;;;5115854;28;20059;-65
2022/05/05 13:13:41;;;;;;;12.23;6.90;;;21.70;43.10;;;;;;5115190;28;20338;-65
2022/05/05 13:16:06;;;;;;;11.32;6.20;;;21.80;43.10;;;;;;5114577;28;20448;-65
2022/05/05 13:18:32;;;;;;;10.80;6.30;;;21.80;43.20;;;;;;5128818;27;20399;-65
2022/05/05 13:20:58;;;;;;;9.80;5.97;;;21.80;43.10;;;;;;5135879;27;20167;-65
2022/05/05 13:23:24;;;;;;;17.13;6.93;;;21.90;43.10;;;;;;5135093;27;20118;-65
2022/05/05 13:25:49;;;;;;;11.52;6.55;;;21.90;42.90;;;;;;5136176;27;20118;-65
2022/05/05 13:28:15;;;;;;;15.85;8.02;;;21.90;42.80;;;;;;5136200;27;20347;-65
2022/05/05 13:30:41;;;;;;;12.77;6.57;;;22.00;42.60;;;;;;5136197;27;20055;-65
2022/05/05 13:33:06;;;;;;;11.70;6.32;;;22.00;42.60;;;;;;5125008;27;20100;-65
2022/05/05 13:35:32;;;;;;;12.57;6.70;;;22.00;42.70;;;;;;5115280;28;20111;-64
2022/05/05 13:37:58;;;;;;;10.30;6.35;;;22.00;42.80;;;;;;5115653;28;20429;-64